createdAt,value
2022-11-07T00:03:48.468Z,12.30
2022-11-07T00:08:53.985Z,12.30
2022-11-07T00:13:56.941Z,12.40
2022-11-07T00:19:01.248Z,12.40
2022-11-07T00:24:04.300Z,12.50
2022-11-07T00:29:07.962Z,12.50
2022-11-07T00:34:12.387Z,12.60
2022-11-07T00:39:15.368Z,12.60
2022-11-07T00:44:18.353Z,12.70
2022-11-07T00:49:23.198Z,12.70
2022-11-07T00:54:26.419Z,12.70
2022-11-07T00:59:29.369Z,12.80
2022-11-07T01:04:51.300Z,12.80
2022-11-07T01:09:54.569Z,12.80
2022-11-07T01:14:57.610Z,12.90
2022-11-07T01:20:01.904Z,12.90
2022-11-07T01:25:05.351Z,12.90
2022-11-07T01:30:09.715Z,13.00
2022-11-07T01:35:15.174Z,13.00
2022-11-07T01:40:18.178Z,13.00
2022-11-07T01:45:24.607Z,13.10
2022-11-07T01:50:29.176Z,13.10
2022-11-07T01:55:34.901Z,13.20
2022-11-07T02:00:38.421Z,13.20
2022-11-07T02:05:48.007Z,13.20
2022-11-07T02:10:51.870Z,13.20
2022-11-07T02:15:54.918Z,13.10
2022-11-07T02:21:03.011Z,13.10
2022-11-07T02:26:08.451Z,13.10
2022-11-07T02:31:11.589Z,13.10
2022-11-07T02:36:19.838Z,13.10
2022-11-07T02:41:27.551Z,13.10
2022-11-07T02:46:31.955Z,13.10
2022-11-07T02:51:34.968Z,13.10
2022-11-07T02:56:39.246Z,13.00
2022-11-07T03:01:42.379Z,13.00
2022-11-07T03:06:45.387Z,13.00
2022-11-07T03:11:49.671Z,13.00
2022-11-07T03:16:52.689Z,12.90
2022-11-07T03:21:55.702Z,12.90
2022-11-07T03:27:00.024Z,12.90
2022-11-07T03:32:03.055Z,13.00
2022-11-07T03:37:06.200Z,12.90
2022-11-07T03:42:10.533Z,13.00
2022-11-07T03:47:13.482Z,13.00
2022-11-07T03:52:16.434Z,13.00
2022-11-07T03:57:20.705Z,13.00
2022-11-07T04:02:24.080Z,13.00
2022-11-07T04:07:27.247Z,13.00
2022-11-07T04:12:48.889Z,13.00
2022-11-07T04:17:53.519Z,13.10
2022-11-07T04:22:56.455Z,13.10
2022-11-07T04:28:00.745Z,13.10
2022-11-07T04:33:03.953Z,13.20
2022-11-07T04:38:06.965Z,13.20
2022-11-07T04:43:12.100Z,13.20
2022-11-07T04:48:15.133Z,13.20
2022-11-07T04:53:19.549Z,13.20
2022-11-07T04:58:23.907Z,13.20
2022-11-07T05:03:26.875Z,13.30
2022-11-07T05:08:29.807Z,13.30
2022-11-07T05:13:34.416Z,13.30
2022-11-07T05:18:37.465Z,13.30
2022-11-07T05:23:40.408Z,13.30
2022-11-07T05:28:44.777Z,13.40
2022-11-07T05:33:47.726Z,13.40
2022-11-07T05:38:52.778Z,13.40
2022-11-07T05:43:57.860Z,13.50
2022-11-07T05:49:01.404Z,13.50
2022-11-07T05:54:04.564Z,13.50
2022-11-07T05:59:10.041Z,13.50
2022-11-07T06:04:13.023Z,13.50
2022-11-07T06:09:16.130Z,13.50
2022-11-07T06:14:21.061Z,13.50
2022-11-07T06:19:24.020Z,13.60
2022-11-07T06:24:26.935Z,13.60
2022-11-07T06:29:31.572Z,13.60
2022-11-07T06:34:34.559Z,13.60
2022-11-07T06:39:37.482Z,13.60
2022-11-07T06:44:41.794Z,13.60
2022-11-07T06:49:44.767Z,13.70
2022-11-07T06:54:47.742Z,13.70
2022-11-07T06:59:52.249Z,13.70
2022-11-07T07:04:55.325Z,13.80
2022-11-07T07:09:58.321Z,13.80
2022-11-07T07:15:02.700Z,13.80
2022-11-07T07:20:06.904Z,13.80
2022-11-07T07:25:11.544Z,13.90
2022-11-07T07:30:16.382Z,13.90
2022-11-07T07:35:19.394Z,13.90
2022-11-07T07:40:22.755Z,13.90
2022-11-07T07:45:27.168Z,14.00
2022-11-07T07:50:30.622Z,14.00
2022-11-07T07:55:33.611Z,14.00
2022-11-07T08:00:38.492Z,14.10
2022-11-07T08:05:41.545Z,14.10
2022-11-07T08:10:53.441Z,14.10
2022-11-07T08:15:58.160Z,14.20
2022-11-07T08:21:01.141Z,14.20
2022-11-07T08:26:04.970Z,14.30
2022-11-07T08:31:11.911Z,14.30
2022-11-07T08:36:14.929Z,14.40
2022-11-07T08:41:21.986Z,14.40
2022-11-07T08:46:26.861Z,14.50
2022-11-07T08:51:29.847Z,14.50
2022-11-07T08:56:34.211Z,14.50
2022-11-07T09:01:55.927Z,14.60
2022-11-07T09:07:01.499Z,14.60
2022-11-07T09:12:04.711Z,14.60
2022-11-07T09:17:09.126Z,14.70
2022-11-07T09:22:12.068Z,14.80
2022-11-07T09:27:15.015Z,14.80
2022-11-07T09:32:43.225Z,14.90
2022-11-07T09:37:43.232Z,14.90
2022-11-07T09:42:53.891Z,15.00
2022-11-07T09:48:02.895Z,15.00
2022-11-07T09:53:14.796Z,15.00
2022-11-07T09:58:26.601Z,15.00
2022-11-07T10:03:31.247Z,15.00
2022-11-07T10:08:42.496Z,15.00
2022-11-07T10:13:58.599Z,15.10
2022-11-07T10:19:11.673Z,15.10
2022-11-07T10:24:26.943Z,15.10
2022-11-07T10:29:44.088Z,15.10
2022-11-07T10:34:54.784Z,15.10
2022-11-07T10:39:57.852Z,15.20
2022-11-07T10:45:00.855Z,15.20
2022-11-07T10:50:19.831Z,15.20
2022-11-07T10:55:23.769Z,15.20
2022-11-07T11:00:28.710Z,15.30
2022-11-07T11:05:43.800Z,15.30
2022-11-07T11:10:47.826Z,15.40
2022-11-07T11:15:51.080Z,15.50
2022-11-07T11:21:01.473Z,15.60
2022-11-07T11:26:08.427Z,15.70
2022-11-07T11:31:16.512Z,15.80
2022-11-07T11:36:25.270Z,15.80
2022-11-07T11:41:36.946Z,15.80
2022-11-07T11:46:47.136Z,15.80
2022-11-07T11:51:55.038Z,15.80
2022-11-07T11:57:02.302Z,15.80
2022-11-07T12:02:31.018Z,15.80
2022-11-07T12:07:51.809Z,15.90
2022-11-07T12:13:06.411Z,16.00
2022-11-07T12:18:19.452Z,16.10
2022-11-07T12:23:31.891Z,16.20
2022-11-07T12:28:46.199Z,16.20
2022-11-07T12:33:54.535Z,16.30
2022-11-07T12:39:10.865Z,16.20
2022-11-07T12:44:34.088Z,16.20
2022-11-07T12:50:06.512Z,16.20
2022-11-07T12:55:21.052Z,16.30
2022-11-07T13:00:29.940Z,16.20
2022-11-07T13:05:57.147Z,16.30
2022-11-07T13:11:07.644Z,16.40
2022-11-07T13:16:23.716Z,16.50
2022-11-07T13:21:26.693Z,16.60
2022-11-07T13:26:47.129Z,16.60
2022-11-07T13:32:05.903Z,16.70
2022-11-07T13:37:17.922Z,16.70
2022-11-07T13:42:25.127Z,16.70
2022-11-07T13:47:34.965Z,16.60
2022-11-07T13:52:44.752Z,16.60
2022-11-07T13:57:53.556Z,16.60
2022-11-07T14:02:58.415Z,16.60
2022-11-07T14:08:03.986Z,16.50
2022-11-07T14:13:11.781Z,16.50
2022-11-07T14:18:16.745Z,16.40
2022-11-07T14:23:22.477Z,16.30
2022-11-07T14:28:35.561Z,16.30
2022-11-07T14:33:38.652Z,16.30
2022-11-07T14:38:47.957Z,16.20
2022-11-07T14:43:53.280Z,16.20
2022-11-07T14:48:56.780Z,16.10
2022-11-07T14:54:05.618Z,16.10
2022-11-07T14:59:12.593Z,16.10
2022-11-07T15:04:28.255Z,16.10
2022-11-07T15:09:35.652Z,16.10
2022-11-07T15:14:40.054Z,16.00
2022-11-07T15:19:43.237Z,16.00
2022-11-07T15:24:47.123Z,16.00
2022-11-07T15:29:53.716Z,16.00
2022-11-07T15:35:12.411Z,15.90
2022-11-07T15:40:24.802Z,15.90
2022-11-07T15:45:29.098Z,15.90
2022-11-07T15:50:32.114Z,15.90
2022-11-07T15:55:35.194Z,15.80
2022-11-07T16:00:39.648Z,15.80
2022-11-07T16:05:43.303Z,15.80
2022-11-07T16:10:48.226Z,15.80
2022-11-07T16:15:55.420Z,15.70
2022-11-07T16:20:58.362Z,15.70
2022-11-07T16:26:01.536Z,15.70
2022-11-07T16:31:06.495Z,15.70
2022-11-07T16:36:20.689Z,15.70
2022-11-07T16:41:24.124Z,15.70
2022-11-07T16:46:30.055Z,15.70
2022-11-07T16:51:33.053Z,15.70
2022-11-07T16:56:36.830Z,15.60
2022-11-07T17:01:41.252Z,15.70
2022-11-07T17:06:47.628Z,15.70
2022-11-07T17:11:50.689Z,15.70
2022-11-07T17:16:54.991Z,15.70
2022-11-07T17:21:58.472Z,15.70
2022-11-07T17:27:01.664Z,15.70
2022-11-07T17:32:06.728Z,15.70
2022-11-07T17:37:15.708Z,15.70
2022-11-07T17:42:18.688Z,15.80
2022-11-07T17:47:29.201Z,15.80
2022-11-07T17:52:32.279Z,15.80
2022-11-07T17:57:35.754Z,15.80
2022-11-07T18:02:40.178Z,15.70
2022-11-07T18:07:44.019Z,15.70
2022-11-07T18:12:47.044Z,15.70
2022-11-07T18:17:51.468Z,15.70
2022-11-07T18:22:54.481Z,15.60
2022-11-07T18:27:57.422Z,15.60
2022-11-07T18:33:01.762Z,15.60
2022-11-07T18:38:04.825Z,15.50
2022-11-07T18:43:09.988Z,15.50
2022-11-07T18:48:17.665Z,15.50
2022-11-07T18:53:21.490Z,15.40
2022-11-07T18:58:24.547Z,15.40
2022-11-07T19:03:29.049Z,15.40
2022-11-07T19:08:35.189Z,15.30
2022-11-07T19:13:39.781Z,15.30
2022-11-07T19:18:49.461Z,15.30
2022-11-07T19:23:52.935Z,15.20
2022-11-07T19:28:57.279Z,15.20
2022-11-07T19:34:01.597Z,15.20
2022-11-07T19:39:04.866Z,15.20
2022-11-07T19:44:07.861Z,15.20
2022-11-07T19:49:12.391Z,15.20
2022-11-07T19:54:15.427Z,15.20
2022-11-07T19:59:18.398Z,15.10
2022-11-07T20:04:23.044Z,15.10
2022-11-07T20:09:26.062Z,15.00
2022-11-07T20:14:28.999Z,15.00
2022-11-07T20:19:33.946Z,14.90
2022-11-07T20:24:36.955Z,14.90
2022-11-07T20:29:39.990Z,14.90
2022-11-07T20:34:44.334Z,14.80
2022-11-07T20:39:47.340Z,14.80
2022-11-07T20:44:51.054Z,14.80
2022-11-07T20:49:55.733Z,14.70
2022-11-07T20:54:58.690Z,14.70
2022-11-07T21:00:01.719Z,14.70
2022-11-07T21:05:21.971Z,14.70
2022-11-07T21:10:25.587Z,14.70
2022-11-07T21:15:28.657Z,14.60
2022-11-07T21:20:33.399Z,14.60
2022-11-07T21:25:42.746Z,14.60
2022-11-07T21:30:46.340Z,14.60
2022-11-07T21:35:50.805Z,14.70
2022-11-07T21:40:54.403Z,14.60
2022-11-07T21:45:57.372Z,14.60
2022-11-07T21:51:05.782Z,14.60
2022-11-07T21:56:10.195Z,14.60
2022-11-07T22:01:13.221Z,14.60
2022-11-07T22:06:19.496Z,14.60
2022-11-07T22:11:22.455Z,14.60
2022-11-07T22:16:25.668Z,14.60
2022-11-07T22:21:31.256Z,14.50
2022-11-07T22:26:34.320Z,14.50
2022-11-07T22:31:37.358Z,14.50
2022-11-07T22:36:41.686Z,14.50
2022-11-07T22:41:44.660Z,14.50
2022-11-07T22:46:47.596Z,14.50
2022-11-07T22:51:51.991Z,14.40
2022-11-07T22:56:55.090Z,14.40
2022-11-07T23:01:58.229Z,14.40
2022-11-07T23:07:02.643Z,14.40
2022-11-07T23:12:06.056Z,14.40
2022-11-07T23:17:09.817Z,14.40
2022-11-07T23:22:14.243Z,14.30
2022-11-07T23:27:17.316Z,14.30
2022-11-07T23:32:20.308Z,14.20
2022-11-07T23:37:25.027Z,14.20
2022-11-07T23:42:31.040Z,14.10
2022-11-07T23:47:51.789Z,14.10
2022-11-07T23:52:56.516Z,14.00
2022-11-07T23:58:25.172Z,14.00
